| Date | Time | Temp. (oF) | Dew Point (oF) | Rel. Hum. (%) | Press. (in.) | Wind Dir. | Wind Speed (mph) | Hourly Rainfall (in.) |
|
|---|---|---|---|---|---|---|---|---|---|
| 1 | 07/01 | 00:00 | 68 | 63 | 85 | 29.65 | S | 0 | 0.00 |
| 2 | 06/30 | 23:00 | 69 | 62 | 81 | 29.64 | ESE | 0 | 0.00 |
| 3 | 06/30 | 22:00 | 70 | 62 | 76 | 29.63 | ESE | 0 | 0.00 |
| 4 | 06/30 | 21:00 | 74 | 64 | 72 | 29.61 | N | 4 | 0.00 |
| 5 | 06/30 | 20:00 | 76 | 65 | 70 | 29.58 | ESE | 0 | 0.00 |
| 6 | 06/30 | 19:00 | 76 | 65 | 71 | 29.55 | ESE | 1 | 0.00 |
| 7 | 06/30 | 18:00 | 77 | 65 | 67 | 29.53 | ENE | 0 | 0.00 |
| 8 | 06/30 | 17:00 | 74 | 64 | 73 | 29.54 | NNE | 0 | 0.00 |
| 9 | 06/30 | 16:00 | 72 | 67 | 85 | 29.55 | NE | 5 | 0.00 |
| 10 | 06/30 | 15:00 | 69 | 65 | 89 | 29.54 | E | 4 | 0.08 |
| 11 | 06/30 | 14:00 | 69 | 62 | 80 | 29.55 | N | 7 | 0.07 |
| 12 | 06/30 | 13:00 | 77 | 68 | 74 | 29.50 | WSW | 0 | 0.00 |
| 13 | miss | miss | miss | miss | miss | miss | miss | miss | |
| 14 | 11 | 08/12/11 | 31 | -100 | 0 | 6.00 | 00039K | 69 | 0.00 |
| 15 | miss | miss | miss | miss | miss | miss | miss | miss | |
| 16 | 11 | 08/12/11 | 31 | -100 | 0 | 6.00 | 00039K | 69 | 0.00 |
| 17 | miss | miss | miss | miss | miss | miss | miss | miss | |
| 18 | 06/30 | 12:23 | 78 | 62 | 59 | 29.52 | WSW | 1 | 0.00 |
| 19 | miss | miss | miss | miss | miss | miss | miss | miss | |
| 20 | 06/30 | 12:21 | 79 | 63 | 59 | 29.52 | WSW | 6 | 0.00 |
| 21 | miss | miss | miss | miss | miss | miss | miss | miss | |
| 22 | 06/30 | 12:19 | 79 | 62 | 57 | 29.52 | SW | 3 | 0.00 |
| 23 | miss | miss | miss | miss | miss | miss | miss | miss | |
| 24 | 06/30 | 12:17 | 79 | 61 | 56 | 29.52 | WSW | 8 | 0.00 |
| 25 | miss | miss | miss | miss | miss | miss | miss | miss | |
| 26 | 06/30 | 12:16 | 79 | 61 | 56 | 29.52 | W | 5 | 0.00 |
| 27 | miss | miss | miss | miss | miss | miss | miss | miss | |
| 28 | 06/30 | 12:16 | 79 | 61 | 56 | 29.52 | W | 5 | 0.00 |
| 29 | miss | miss | miss | miss | miss | miss | miss | miss | |
| 30 | 06/30 | 12:16 | 79 | 61 | 56 | 29.52 | W | 5 | 0.00 |
| 31 | miss | miss | miss | miss | miss | miss | miss | miss | |
| 32 | 06/30 | 12:16 | 79 | 61 | 56 | 29.52 | W | 5 | 0.00 |
| 33 | miss | miss | miss | miss | miss | miss | miss | miss | |
| 34 | 06/30 | 12:16 | 79 | 61 | 56 | 29.52 | W | 5 | 0.00 |
| 35 | miss | miss | miss | miss | miss | miss | miss | miss | |
| 36 | 06/30 | 12:16 | 79 | 61 | 56 | 29.52 | W | 5 | 0.00 |
| 37 | 06/30 | 12:00 | 80 | 61 | 54 | 29.52 | WSW | 4 | 0.00 |
| 38 | 06/30 | 11:00 | 81 | 62 | 53 | 29.52 | SW | 8 | 0.00 |
| 39 | 06/30 | 10:00 | 78 | 62 | 59 | 29.52 | WSW | 3 | 0.00 |
| 40 | 06/30 | 09:00 | 77 | 63 | 64 | 29.53 | SSE | 4 | 0.00 |
| 41 | 06/30 | 08:00 | 69 | 62 | 81 | 29.53 | S | 0 | 0.00 |
| 42 | 06/30 | 07:00 | 64 | 61 | 92 | 29.53 | SSW | 0 | 0.00 |
| 43 | 06/30 | 06:00 | 63 | 59 | 89 | 29.52 | S | 0 | 0.00 |
| 44 | 06/30 | 05:00 | 65 | 60 | 85 | 29.51 | S | 0 | 0.00 |
| 45 | 06/30 | 04:00 | 67 | 60 | 81 | 29.52 | SE | 0 | 0.00 |
| 46 | 06/30 | 03:00 | 68 | 60 | 78 | 29.52 | SE | 0 | 0.00 |
| 47 | 06/30 | 02:00 | 69 | 61 | 77 | 29.53 | NNW | 1 | 0.00 |
| 48 | 06/30 | 01:00 | 66 | 61 | 84 | 29.53 | WSW | 0 | 0.00 |
| 49 | 06/30 | 00:00 | 67 | 59 | 78 | 29.54 | WSW | 0 | -0.25 |
| 50 | 06/29 | 23:00 | 70 | 60 | 73 | 29.54 | WSW | 0 | 0.00 |
| 51 | 06/29 | 22:00 | 73 | 61 | 68 | 29.53 | SW | 0 | 0.00 |
| 52 | 06/29 | 21:00 | 76 | 60 | 59 | 29.51 | SW | 0 | 0.00 |
| 53 | 06/29 | 20:00 | 79 | 59 | 52 | 29.49 | SSW | 5 | 0.00 |
| 54 | 06/29 | 19:00 | 81 | 57 | 45 | 29.48 | WSW | 6 | 0.00 |
| 55 | 06/29 | 18:00 | 82 | 57 | 44 | 29.47 | SW | 4 | 0.00 |
| 56 | 06/29 | 17:00 | 83 | 57 | 42 | 29.48 | W | 7 | 0.00 |
| 57 | 06/29 | 16:00 | 83 | 57 | 43 | 29.49 | WSW | 2 | 0.00 |
| 58 | 06/29 | 15:00 | 84 | 58 | 43 | 29.50 | NNW | 4 | 0.00 |
| 59 | 06/29 | 14:00 | 82 | 56 | 42 | 29.52 | NNE | 4 | 0.00 |
| 60 | 06/29 | 13:00 | 81 | 59 | 48 | 29.53 | NW | 7 | 0.00 |
| 61 | 06/29 | 12:00 | 79 | 58 | 49 | 29.53 | W | 2 | 0.00 |
| 62 | 06/29 | 11:00 | 77 | 59 | 55 | 29.54 | WNW | 8 | 0.00 |
| 63 | 06/29 | 10:00 | 75 | 61 | 63 | 29.55 | NW | 4 | 0.00 |
| 64 | 06/29 | 09:00 | 72 | 62 | 73 | 29.55 | WSW | 3 | 0.00 |
| 65 | 06/29 | 08:00 | 67 | 63 | 90 | 29.55 | SW | 0 | 0.00 |
| 66 | 06/29 | 07:00 | 63 | 62 | 99 | 29.55 | NW | 0 | 0.00 |
| 67 | 06/29 | 06:00 | 62 | 61 | 99 | 29.55 | WSW | 0 | 0.01 |
| 68 | 06/29 | 05:00 | 63 | 62 | 98 | 29.55 | SW | 0 | 0.00 |
| 69 | 06/29 | 04:00 | 64 | 63 | 98 | 29.54 | NW | 0 | 0.00 |
| 70 | 06/29 | 03:00 | 64 | 63 | 98 | 29.57 | WSW | 0 | 0.00 |
| 71 | 06/29 | 02:00 | 63 | 62 | 98 | 29.57 | SW | 0 | 0.00 |
| 72 | 06/29 | 01:00 | 63 | 62 | 97 | 29.59 | SW | 0 | 0.00 |
| 73 | 06/29 | 00:00 | 64 | 62 | 94 | 29.60 | SW | 0 | -0.01 |
| 74 | 06/28 | 23:00 | 65 | 63 | 94 | 29.63 | NNE | 0 | 0.00 |